Time;durP1;ratioP1;P1;durP2;ratioP2;P2;SDS_P1;SDS_P2;PMS_P1;PMS_P2;Temp;Humidity;BMP_temperature;BMP_pressure;BME280_temperature;BME280_humidity;BME280_pressure;Samples;Min_cycle;Max_cycle;Signal;HPM_P1;HPM_P2
2023/03/22 00:01:30;;;;;;;17.00;13.85;;;;;;;8.04;100.00;100908.81;10303151;28;20433;-79
2023/03/22 00:06:55;;;;;;;18.70;14.82;;;;;;;8.14;100.00;100903.22;10269462;28;20049;-78
2023/03/22 00:12:15;;;;;;;18.90;13.93;;;;;;;8.18;100.00;100903.44;10303481;28;20064;-75
2023/03/22 00:17:12;;;;;;;19.80;14.15;;;;;;;8.27;100.00;100892.69;10303092;28;20041;-75
2023/03/22 00:22:10;;;;;;;20.50;14.30;;;;;;;8.31;100.00;100896.41;10307119;28;20045;-78
2023/03/22 00:27:10;;;;;;;19.45;14.77;;;;;;;8.37;100.00;100887.06;10306720;28;20678;-78
2023/03/22 00:32:09;;;;;;;19.88;15.60;;;;;;;8.39;100.00;100871.22;10295244;28;20209;-78
2023/03/22 00:37:07;;;;;;;17.48;14.85;;;;;;;8.36;100.00;100872.63;10302072;28;21276;-78
2023/03/22 00:42:05;;;;;;;19.92;13.60;;;;;;;8.33;100.00;100873.22;10297008;28;20045;-75
2023/03/22 00:47:02;;;;;;;18.15;14.23;;;;;;;8.37;100.00;100873.44;10293967;28;20045;-75
2023/03/22 00:51:58;;;;;;;20.13;14.50;;;;;;;8.43;100.00;100864.91;10289522;28;20080;-75
2023/03/22 01:02:52;;;;;;;21.98;15.43;;;;;;;8.37;100.00;100851.63;10286540;28;20044;-77
2023/03/22 01:14:57;;;;;;;19.08;15.80;;;;;;;8.59;100.00;100843.63;10300362;28;20448;-78
2023/03/22 01:20:28;;;;;;;19.30;16.67;;;;;;;8.57;100.00;100842.31;10301392;28;20071;-74
2023/03/22 01:25:25;;;;;;;20.40;16.63;;;;;;;8.53;100.00;100825.75;10293633;28;20069;-75
2023/03/22 01:30:21;;;;;;;21.00;16.60;;;;;;;8.54;100.00;100821.94;10293501;28;20056;-74
2023/03/22 01:35:18;;;;;;;21.02;17.05;;;;;;;8.57;100.00;100818.59;10300376;28;20535;-79
2023/03/22 01:40:15;;;;;;;21.10;16.30;;;;;;;8.44;100.00;100813.94;10289844;28;20689;-78
2023/03/22 01:45:14;;;;;;;19.80;15.85;;;;;;;8.45;100.00;100804.66;10308680;28;20547;-78
2023/03/22 01:50:11;;;;;;;19.20;15.13;;;;;;;8.43;100.00;100802.22;10294802;28;20081;-77
2023/03/22 01:55:08;;;;;;;22.70;16.17;;;;;;;8.43;100.00;100795.97;10288464;28;20049;-79
2023/03/22 02:00:09;;;;;;;20.17;15.02;;;;;;;8.48;100.00;100782.25;10293916;28;20055;-80
2023/03/22 02:05:06;;;;;;;21.17;17.00;;;;;;;8.48;100.00;100781.44;10284815;28;20045;-80
2023/03/22 02:10:03;;;;;;;24.52;16.23;;;;;;;8.51;100.00;100775.38;10302209;28;20161;-79
2023/03/22 02:15:20;;;;;;;20.10;16.30;;;;;;;8.51;100.00;100776.19;10289797;28;20050;-79
2023/03/22 02:20:57;;;;;;;22.17;15.77;;;;;;;8.47;100.00;100764.31;10284075;28;20550;-75
2023/03/22 02:26:08;;;;;;;23.10;15.60;;;;;;;8.28;100.00;100766.25;10296789;28;20506;-75
2023/03/22 02:31:28;;;;;;;19.55;16.13;;;;;;;8.34;100.00;100765.84;10300621;28;20051;-75
2023/03/22 02:36:33;;;;;;;18.90;14.90;;;;;;;8.33;100.00;100757.97;10289705;28;20040;-76
2023/03/22 02:41:43;;;;;;;17.80;15.15;;;;;;;8.34;100.00;100748.72;10299213;28;20053;-77
2023/03/22 02:46:45;;;;;;;17.90;15.75;;;;;;;8.36;100.00;100741.06;10293137;28;20068;-75
2023/03/22 02:51:49;;;;;;;24.30;16.33;;;;;;;8.37;100.00;100737.19;10300954;28;20136;-76
2023/03/22 02:57:03;;;;;;;20.75;15.80;;;;;;;8.37;100.00;100737.19;10311003;28;20125;-78
2023/03/22 03:02:02;;;;;;;17.17;15.10;;;;;;;8.36;100.00;100735.59;10294430;28;20056;-75
2023/03/22 03:07:08;;;;;;;19.38;15.02;;;;;;;8.33;100.00;100728.00;10286699;28;20545;-75
2023/03/22 03:12:13;;;;;;;20.42;15.85;;;;;;;8.29;100.00;100727.03;10297677;28;20045;-80
2023/03/22 03:17:21;;;;;;;19.98;15.05;;;;;;;8.27;100.00;100721.88;10298341;28;20052;-80
2023/03/22 03:22:56;;;;;;;20.38;14.63;;;;;;;8.34;100.00;100718.75;10304898;28;20062;-80
2023/03/22 03:28:11;;;;;;;16.30;13.50;;;;;;;8.40;100.00;100715.66;10295395;28;20059;-76
2023/03/22 03:33:15;;;;;;;15.68;12.73;;;;;;;8.45;100.00;100712.03;10302802;28;20048;-78
2023/03/22 03:38:17;;;;;;;20.63;14.73;;;;;;;8.46;100.00;100708.16;10298562;28;20562;-78
2023/03/22 03:43:15;;;;;;;20.25;15.05;;;;;;;8.45;100.00;100701.13;10300085;28;20131;-78
2023/03/22 03:48:19;;;;;;;20.02;14.90;;;;;;;8.53;100.00;100703.13;10307971;28;20051;-79
2023/03/22 03:53:15;;;;;;;16.63;13.02;;;;;;;8.61;100.00;100701.63;10298294;28;20052;-78
2023/03/22 03:58:12;;;;;;;16.95;13.88;;;;;;;8.71;100.00;100685.03;10303414;28;20164;-79
2023/03/22 04:03:08;;;;;;;14.73;12.60;;;;;;;8.87;100.00;100690.16;10308876;28;20473;-79
2023/03/22 04:08:05;;;;;;;14.75;11.45;;;;;;;8.95;100.00;100681.22;10307094;28;20106;-79
2023/03/22 04:13:02;;;;;;;14.38;11.27;;;;;;;8.98;100.00;100678.72;10298236;28;20092;-76
2023/03/22 04:17:58;;;;;;;17.45;12.02;;;;;;;8.96;100.00;100689.13;10307443;28;20048;-73
2023/03/22 04:22:56;;;;;;;18.45;12.10;;;;;;;9.00;100.00;100673.72;10292474;28;20495;-80
2023/03/22 04:27:54;;;;;;;18.88;11.32;;;;;;;9.04;100.00;100674.72;10288852;28;20132;-79
2023/03/22 04:32:51;;;;;;;15.23;11.40;;;;;;;9.00;100.00;100668.28;10306256;28;20036;-74
2023/03/22 04:37:47;;;;;;;15.18;11.10;;;;;;;9.02;100.00;100660.59;10297129;28;20147;-72
2023/03/22 04:42:44;;;;;;;15.90;11.68;;;;;;;8.96;100.00;100666.50;10300095;28;20045;-73
2023/03/22 04:47:40;;;;;;;22.77;12.23;;;;;;;8.96;100.00;100661.03;10310578;28;20052;-73
2023/03/22 04:52:37;;;;;;;15.95;11.68;;;;;;;8.91;100.00;100653.78;10293582;28;20462;-73
2023/03/22 04:57:34;;;;;;;12.90;10.55;;;;;;;8.92;100.00;100649.13;10298537;28;20069;-73
2023/03/22 05:02:31;;;;;;;14.00;11.75;;;;;;;8.93;100.00;100654.25;10290625;28;20507;-75
2023/03/22 05:07:27;;;;;;;13.77;10.90;;;;;;;8.92;100.00;100655.38;10308399;28;20050;-79
2023/03/22 05:12:24;;;;;;;14.60;11.50;;;;;;;8.94;100.00;100652.38;10293116;28;20490;-78
2023/03/22 05:17:21;;;;;;;14.55;12.48;;;;;;;8.93;100.00;100646.09;10300376;28;20211;-79
2023/03/22 05:22:18;;;;;;;13.20;11.85;;;;;;;8.95;100.00;100643.84;10287618;28;20041;-79
2023/03/22 05:27:14;;;;;;;17.88;12.73;;;;;;;9.02;100.00;100649.69;10301421;28;20064;-76
2023/03/22 05:32:11;;;;;;;13.52;11.45;;;;;;;9.00;100.00;100651.91;10292249;28;20079;-75
2023/03/22 05:37:07;;;;;;;15.75;11.73;;;;;;;9.01;100.00;100653.53;10297213;28;20059;-76
2023/03/22 05:42:04;;;;;;;13.27;11.82;;;;;;;9.04;100.00;100658.38;10293118;28;20429;-76
2023/03/22 05:47:00;;;;;;;13.38;11.85;;;;;;;9.08;100.00;100663.22;10305801;28;20090;-76
2023/03/22 05:51:57;;;;;;;13.95;11.70;;;;;;;9.17;100.00;100656.72;10288667;28;20048;-77
2023/03/22 05:56:53;;;;;;;15.88;11.95;;;;;;;9.18;100.00;100657.50;10301456;28;20055;-77
2023/03/22 06:01:51;;;;;;;12.65;10.85;;;;;;;9.21;100.00;100656.88;10293383;28;20048;-76
2023/03/22 06:06:47;;;;;;;10.95;9.73;;;;;;;9.21;100.00;100657.72;10295208;28;20136;-76
2023/03/22 06:11:44;;;;;;;14.10;10.43;;;;;;;9.30;100.00;100655.03;10295409;28;20290;-76
2023/03/22 06:16:40;;;;;;;11.30;10.10;;;;;;;9.33;100.00;100638.06;10289271;28;20079;-76
2023/03/22 06:21:37;;;;;;;18.08;10.65;;;;;;;9.41;100.00;100628.31;10291047;28;20090;-76
2023/03/22 06:26:34;;;;;;;13.63;10.02;;;;;;;9.52;100.00;100631.59;10286832;28;20048;-76
2023/03/22 06:31:30;;;;;;;14.55;9.57;;;;;;;9.63;100.00;100641.09;10307739;28;20049;-76
2023/03/22 06:36:28;;;;;;;12.10;8.52;;;;;;;9.74;100.00;100625.25;10309494;28;20080;-76
2023/03/22 06:41:25;;;;;;;13.60;9.00;;;;;;;9.84;100.00;100625.81;10290785;28;20071;-76
2023/03/22 06:46:22;;;;;;;11.93;9.15;;;;;;;9.96;100.00;100638.06;10303326;28;20492;-76
2023/03/22 06:51:19;;;;;;;14.27;9.32;;;;;;;9.98;100.00;100636.63;10294100;28;20506;-76
2023/03/22 06:56:15;;;;;;;17.40;10.05;;;;;;;9.94;100.00;100637.56;10302591;28;20052;-76
2023/03/22 07:01:11;;;;;;;11.35;9.30;;;;;;;9.87;100.00;100636.09;10309715;28;20648;-76
2023/03/22 07:06:08;;;;;;;13.30;10.15;;;;;;;9.84;100.00;100636.72;10300752;28;20040;-75
2023/03/22 07:11:05;;;;;;;17.02;9.45;;;;;;;9.86;100.00;100634.47;10300620;28;20055;-76
2023/03/22 07:16:02;;;;;;;13.50;10.43;;;;;;;9.89;100.00;100630.31;10314834;28;20082;-76
2023/03/22 07:20:59;;;;;;;14.95;9.10;;;;;;;9.99;100.00;100631.94;10294375;28;20119;-75
2023/03/22 07:25:55;;;;;;;14.73;9.60;;;;;;;9.97;100.00;100617.81;10306073;28;20052;-76
2023/03/22 07:31:03;;;;;;;12.90;10.43;;;;;;;9.99;100.00;100621.81;10308678;28;20506;-76
2023/03/22 07:35:59;;;;;;;18.92;10.57;;;;;;;9.86;100.00;100612.63;10297349;28;20044;-75
2023/03/22 07:40:56;;;;;;;14.93;10.50;;;;;;;9.88;100.00;100602.19;10304744;28;20490;-75
2023/03/22 07:45:52;;;;;;;14.57;10.77;;;;;;;9.95;100.00;100614.56;10283756;28;20563;-75
2023/03/22 07:50:54;;;;;;;14.35;11.13;;;;;;;10.16;100.00;100596.47;10292041;28;20102;-75
2023/03/22 07:55:50;;;;;;;17.08;10.73;;;;;;;10.22;100.00;100594.41;10311898;28;20052;-76
2023/03/22 08:00:48;;;;;;;15.30;11.60;;;;;;;10.17;100.00;100583.66;10297261;28;20124;-76
2023/03/22 08:05:45;;;;;;;14.13;12.07;;;;;;;10.18;100.00;100568.84;10303778;28;20052;-76
2023/03/22 08:10:41;;;;;;;14.15;12.15;;;;;;;10.20;100.00;100551.00;10312622;28;20044;-76
2023/03/22 08:15:38;;;;;;;13.98;12.07;;;;;;;10.29;100.00;100532.72;10295903;28;20048;-76
2023/03/22 08:20:36;;;;;;;13.98;12.05;;;;;;;10.37;100.00;100533.06;10304106;28;20130;-77
2023/03/22 08:25:34;;;;;;;17.13;12.63;;;;;;;10.42;100.00;100530.16;10298972;28;20048;-76
2023/03/22 08:30:30;;;;;;;17.55;13.13;;;;;;;10.40;100.00;100514.09;10305840;28;20108;-76
2023/03/22 08:35:27;;;;;;;17.30;11.95;;;;;;;10.37;100.00;100508.47;10303697;28;20422;-76
2023/03/22 08:40:23;;;;;;;17.60;12.32;;;;;;;10.44;100.00;100516.97;10300639;28;20887;-76
2023/03/22 08:45:20;;;;;;;16.80;12.77;;;;;;;10.61;100.00;100508.78;10285986;28;20486;-76
2023/03/22 08:50:16;;;;;;;16.10;11.52;;;;;;;11.07;100.00;100507.25;10293604;28;20119;-76
2023/03/22 08:55:16;;;;;;;13.23;11.75;;;;;;;11.47;100.00;100493.25;10296903;28;20047;-76
2023/03/22 09:00:13;;;;;;;13.30;11.95;;;;;;;11.46;100.00;100486.16;10302396;28;20052;-76
2023/03/22 09:05:10;;;;;;;14.27;11.05;;;;;;;11.61;100.00;100486.75;10301664;28;20040;-76
2023/03/22 09:10:07;;;;;;;13.13;10.77;;;;;;;11.71;100.00;100483.63;10295581;28;20057;-76
2023/03/22 09:15:05;;;;;;;15.15;11.73;;;;;;;11.98;100.00;100474.94;10297470;28;20044;-75
2023/03/22 09:20:01;;;;;;;15.43;10.88;;;;;;;12.30;100.00;100469.88;10306444;28;20063;-76
2023/03/22 09:25:08;;;;;;;11.52;10.32;;;;;;;12.33;100.00;100458.22;10293209;28;20052;-76
2023/03/22 09:30:08;;;;;;;12.88;10.05;;;;;;;12.50;100.00;100456.47;10301059;28;20468;-76
2023/03/22 09:35:05;;;;;;;16.52;10.32;;;;;;;12.40;100.00;100463.97;10301373;28;20075;-76
2023/03/22 09:40:04;;;;;;;15.77;10.52;;;;;;;12.51;100.00;100455.31;10291173;28;20083;-76
2023/03/22 09:45:02;;;;;;;12.52;9.32;;;;;;;12.29;100.00;100440.84;10292203;28;20056;-77
2023/03/22 09:50:05;;;;;;;12.27;9.10;;;;;;;12.24;100.00;100435.56;10288223;28;20115;-76
2023/03/22 09:55:02;;;;;;;12.93;9.25;;;;;;;12.22;100.00;100429.63;10292993;28;20136;-76
2023/03/22 10:00:21;;;;;;;13.00;9.27;;;;;;;12.39;100.00;100434.97;10301835;28;20148;-76
2023/03/22 10:05:17;;;;;;;11.35;8.60;;;;;;;12.48;100.00;100421.16;10275740;28;20117;-76
2023/03/22 10:10:18;;;;;;;8.95;7.57;;;;;;;12.66;100.00;100410.03;10303671;28;20053;-76
2023/03/22 10:15:19;;;;;;;12.65;8.50;;;;;;;12.95;100.00;100411.78;10298913;28;20071;-76
2023/03/22 10:20:27;;;;;;;12.32;8.30;;;;;;;12.89;100.00;100402.19;10286191;28;20079;-77
2023/03/22 10:25:32;;;;;;;9.65;8.00;;;;;;;12.90;100.00;100409.25;10294241;28;20045;-76
2023/03/22 10:30:35;;;;;;;10.77;7.13;;;;;;;12.72;100.00;100420.44;10291779;28;20051;-77
2023/03/22 10:35:31;;;;;;;14.32;8.00;;;;;;;12.55;100.00;100417.88;10312172;28;20064;-76
2023/03/22 10:40:32;;;;;;;8.57;7.70;;;;;;;12.61;100.00;100424.75;10302356;28;20524;-77
2023/03/22 10:45:32;;;;;;;10.95;8.13;;;;;;;12.80;100.00;100416.78;10274109;28;20049;-76
2023/03/22 10:50:33;;;;;;;9.73;6.95;;;;;;;12.90;100.00;100417.47;10294749;28;20139;-77
2023/03/22 10:55:30;;;;;;;9.57;6.63;;;;;;;13.16;100.00;100409.75;10304642;28;20158;-77
2023/03/22 11:00:27;;;;;;;11.65;7.57;;;;;;;13.20;100.00;100418.88;10293897;28;20041;-77
2023/03/22 11:05:26;;;;;;;12.05;7.10;;;;;;;13.17;100.00;100430.56;10299477;28;20076;-75
2023/03/22 11:10:26;;;;;;;11.25;7.25;;;;;;;13.03;100.00;100408.13;10282308;28;20113;-75
2023/03/22 11:15:27;;;;;;;15.45;8.20;;;;;;;12.95;100.00;100411.78;10295329;28;20472;-75
2023/03/22 11:20:24;;;;;;;8.50;7.50;;;;;;;13.09;100.00;100406.78;10304618;28;20078;-75
2023/03/22 11:25:29;;;;;;;10.68;8.13;;;;;;;13.12;100.00;100428.03;10297441;28;20442;-74
2023/03/22 11:30:27;;;;;;;14.75;8.32;;;;;;;12.91;100.00;100422.66;10302311;28;20045;-76
2023/03/22 11:35:25;;;;;;;7.78;6.95;;;;;;;13.02;100.00;100414.78;10304562;28;20056;-77
2023/03/22 11:40:27;;;;;;;10.82;6.85;;;;;;;13.08;100.00;100420.84;10298268;28;20064;-75
2023/03/22 11:45:30;;;;;;;12.73;7.63;;;;;;;12.85;100.00;100434.97;10294420;28;20049;-75
2023/03/22 11:50:30;;;;;;;8.82;7.97;;;;;;;12.96;100.00;100418.88;10303498;28;20048;-74
2023/03/22 11:55:30;;;;;;;12.48;8.00;;;;;;;12.90;100.00;100431.22;10294703;28;20044;-74
2023/03/22 12:00:29;;;;;;;8.68;7.65;;;;;;;13.02;100.00;100417.53;10294408;28;20131;-73
2023/03/22 12:05:30;;;;;;;11.95;8.48;;;;;;;12.81;100.00;100434.88;10287443;28;20534;-77
2023/03/22 12:10:38;;;;;;;9.90;8.60;;;;;;;12.79;100.00;100414.41;10294788;28;20040;-76
2023/03/22 12:15:39;;;;;;;11.93;8.88;;;;;;;12.92;100.00;100412.47;10312701;28;20048;-76
2023/03/22 12:20:54;;;;;;;11.05;8.80;;;;;;;12.86;100.00;100409.16;10300337;28;20047;-76
2023/03/22 12:26:05;;;;;;;12.43;8.07;;;;;;;13.07;100.00;100402.78;10287332;28;20052;-77
2023/03/22 12:31:03;;;;;;;9.32;8.43;;;;;;;12.96;100.00;100407.91;10304291;28;20513;-76
2023/03/22 12:36:03;;;;;;;12.30;9.07;;;;;;;12.85;100.00;100397.34;10299942;28;20140;-76
2023/03/22 12:41:06;;;;;;;9.88;8.55;;;;;;;12.79;100.00;100396.00;10300920;28;20409;-76
2023/03/22 12:46:05;;;;;;;11.65;8.43;;;;;;;12.78;100.00;100397.13;10291676;28;20578;-76
2023/03/22 12:51:07;;;;;;;11.38;8.57;;;;;;;12.80;100.00;100405.81;10305852;28;20056;-76
2023/03/22 12:56:04;;;;;;;9.65;8.85;;;;;;;12.65;100.00;100392.78;10307804;28;20414;-76
2023/03/22 13:01:30;;;;;;;10.02;8.80;;;;;;;11.80;100.00;100407.69;10293630;28;20102;-75
2023/03/22 13:06:53;;;;;;;9.63;8.68;;;;;;;11.52;100.00;100430.09;10292093;28;20176;-75
2023/03/22 13:12:17;;;;;;;11.38;10.25;;;;;;;11.10;100.00;100440.94;10310470;28;20084;-76
2023/03/22 13:17:35;;;;;;;13.05;9.68;;;;;;;10.84;100.00;100448.44;10300544;28;20074;-76
2023/03/22 13:22:34;;;;;;;11.13;10.10;;;;;;;10.61;100.00;100456.84;10290084;28;20101;-75
2023/03/22 13:27:57;;;;;;;12.57;9.40;;;;;;;10.49;100.00;100448.50;10291428;28;20145;-76
2023/03/22 13:33:09;;;;;;;10.87;9.83;;;;;;;10.49;100.00;100465.69;10303818;28;20794;-75
2023/03/22 13:38:18;;;;;;;11.43;9.25;;;;;;;10.46;100.00;100462.78;10301208;28;20037;-75
2023/03/22 13:43:34;;;;;;;10.93;9.77;;;;;;;10.23;100.00;100454.72;10289186;28;20052;-75
2023/03/22 13:48:59;;;;;;;11.80;9.63;;;;;;;10.39;100.00;100438.69;10290711;28;20037;-75
2023/03/22 13:54:17;;;;;;;12.30;11.05;;;;;;;10.47;100.00;100448.81;10281710;28;20136;-76
2023/03/22 13:59:26;;;;;;;13.73;11.25;;;;;;;10.57;100.00;100444.13;10298631;28;20052;-75
2023/03/22 14:04:44;;;;;;;14.80;11.35;;;;;;;10.76;100.00;100449.25;10296364;28;20075;-76
2023/03/22 14:10:17;;;;;;;11.38;9.73;;;;;;;10.78;100.00;100445.06;10298660;28;20037;-75
2023/03/22 14:15:17;;;;;;;13.32;9.30;;;;;;;10.84;100.00;100456.63;10289712;28;20044;-76
2023/03/22 14:20:20;;;;;;;10.57;8.68;;;;;;;10.88;100.00;100461.09;10289904;28;20730;-76
2023/03/22 14:25:21;;;;;;;13.13;8.82;;;;;;;10.92;100.00;100450.31;10303741;28;20048;-76
2023/03/22 14:30:37;;;;;;;11.50;8.13;;;;;;;10.86;100.00;100451.63;10303760;28;20045;-76
2023/03/22 14:35:44;;;;;;;11.57;9.38;;;;;;;10.90;100.00;100452.56;10297810;28;20044;-76
2023/03/22 14:40:40;;;;;;;12.50;8.80;;;;;;;11.01;100.00;100431.94;10285853;28;20119;-76
2023/03/22 14:45:35;;;;;;;13.18;10.30;;;;;;;11.12;100.00;100427.72;10301510;28;20120;-76
2023/03/22 14:50:33;;;;;;;11.05;9.05;;;;;;;11.19;100.00;100435.44;10305870;28;20094;-76
2023/03/22 14:55:29;;;;;;;12.63;9.70;;;;;;;11.09;100.00;100449.44;10296581;28;20201;-76
2023/03/22 15:00:27;;;;;;;10.23;9.10;;;;;;;11.06;100.00;100456.38;10306815;28;20544;-76
2023/03/22 15:05:25;;;;;;;11.48;9.00;;;;;;;11.05;100.00;100460.25;10300100;28;20040;-75
2023/03/22 15:10:25;;;;;;;12.82;9.18;;;;;;;11.01;100.00;100448.38;10275479;28;20139;-76
2023/03/22 15:15:27;;;;;;;11.98;9.15;;;;;;;10.97;100.00;100452.09;10309293;28;20159;-76
2023/03/22 15:20:27;;;;;;;11.35;9.75;;;;;;;10.99;100.00;100445.16;10301887;28;20413;-76
2023/03/22 15:25:31;;;;;;;14.40;9.52;;;;;;;11.02;100.00;100439.00;10302791;28;20040;-76
2023/03/22 15:30:27;;;;;;;11.45;9.68;;;;;;;11.05;100.00;100435.66;10286461;28;20131;-76
2023/03/22 15:35:25;;;;;;;9.60;8.63;;;;;;;11.12;100.00;100438.66;10296192;28;20044;-75
2023/03/22 15:40:38;;;;;;;11.25;9.32;;;;;;;11.19;100.00;100437.38;10304403;28;20052;-76
2023/03/22 15:45:33;;;;;;;;;;;;;;;11.19;100.00;100431.91;10306893;28;20069;-76
2023/03/22 15:50:29;;;;;;;10.00;8.30;;;;;;;11.19;100.00;100437.38;10298402;28;20409;-75
2023/03/22 15:55:38;;;;;;;13.25;8.32;;;;;;;11.22;100.00;100442.19;10299097;28;20041;-76
2023/03/22 16:00:37;;;;;;;11.55;9.32;;;;;;;11.23;100.00;100449.25;10267869;28;20040;-77
2023/03/22 16:05:38;;;;;;;10.18;8.70;;;;;;;11.24;100.00;100446.19;10303683;28;20499;-76
2023/03/22 16:10:35;;;;;;;9.73;8.80;;;;;;;11.23;100.00;100460.19;10299830;28;20060;-76
2023/03/22 16:15:32;;;;;;;10.93;9.73;;;;;;;11.20;100.00;100460.84;10304167;28;20051;-76
2023/03/22 16:20:31;;;;;;;11.25;9.32;;;;;;;11.16;100.00;100458.78;10306196;28;20060;-76
2023/03/22 16:25:28;;;;;;;12.75;10.70;;;;;;;11.15;100.00;100465.38;10296185;28;20044;-76
2023/03/22 16:30:23;;;;;;;15.27;9.77;;;;;;;11.09;100.00;100471.34;10301333;28;20045;-75
2023/03/22 16:35:22;;;;;;;11.23;10.20;;;;;;;11.07;100.00;100466.22;10299924;28;20406;-76
2023/03/22 16:40:19;;;;;;;13.35;10.32;;;;;;;11.05;100.00;100465.75;10293389;28;20044;-75
2023/03/22 16:45:28;;;;;;;11.30;10.20;;;;;;;10.99;100.00;100467.03;10313379;28;20047;-76
2023/03/22 16:50:26;;;;;;;15.20;10.30;;;;;;;10.89;100.00;100475.59;10270731;28;20044;-75
2023/03/22 16:55:25;;;;;;;11.68;10.63;;;;;;;10.84;100.00;100470.31;10275836;28;20056;-74
2023/03/22 17:00:22;;;;;;;12.18;9.98;;;;;;;10.82;100.00;100472.56;10296347;28;20057;-74
2023/03/22 17:05:20;;;;;;;10.75;9.15;;;;;;;10.76;100.00;100468.38;10299293;28;20056;-74
2023/03/22 17:10:17;;;;;;;11.00;9.93;;;;;;;10.74;100.00;100476.91;10280052;28;20051;-74
2023/03/22 17:15:35;;;;;;;13.75;10.00;;;;;;;10.73;100.00;100486.25;10302847;28;20602;-74
2023/03/22 17:20:32;;;;;;;11.45;9.85;;;;;;;10.66;100.00;100481.28;10288926;28;20048;-73
2023/03/22 17:25:31;;;;;;;11.20;10.07;;;;;;;10.65;100.00;100484.31;10300147;28;20052;-73
2023/03/22 17:30:29;;;;;;;13.98;10.40;;;;;;;10.61;100.00;100488.84;10291713;28;20573;-74
2023/03/22 17:35:29;;;;;;;11.02;9.93;;;;;;;10.59;100.00;100502.81;10300043;28;20076;-74
2023/03/22 17:40:25;;;;;;;11.60;10.27;;;;;;;10.58;100.00;100493.00;10304229;28;20105;-73
2023/03/22 17:45:28;;;;;;;13.15;10.75;;;;;;;10.56;100.00;100487.09;10294702;28;20529;-73
2023/03/22 17:50:29;;;;;;;10.98;9.93;;;;;;;10.53;100.00;100483.03;10278040;28;20624;-73
2023/03/22 17:55:27;;;;;;;10.35;9.32;;;;;;;10.57;100.00;100483.22;10292102;28;20067;-73
2023/03/22 18:00:23;;;;;;;11.68;10.07;;;;;;;10.59;100.00;100475.50;10279988;28;20114;-75
2023/03/22 18:05:24;;;;;;;11.35;10.07;;;;;;;10.59;100.00;100464.56;10295491;28;20555;-76
2023/03/22 18:10:21;;;;;;;11.65;10.45;;;;;;;10.61;100.00;100456.03;10267155;28;20044;-75
2023/03/22 18:15:17;;;;;;;10.70;9.65;;;;;;;10.54;100.00;100442.84;10286802;28;20048;-75
2023/03/22 18:20:15;;;;;;;13.57;9.18;;;;;;;10.57;100.00;100444.13;10284636;28;20692;-75
2023/03/22 18:25:11;;;;;;;9.85;8.90;;;;;;;10.61;100.00;100437.69;10275886;28;20052;-76
2023/03/22 18:30:08;;;;;;;9.68;8.68;;;;;;;10.59;100.00;100431.75;10272916;28;20453;-74
2023/03/22 18:35:04;;;;;;;12.18;8.45;;;;;;;10.54;100.00;100440.13;10313390;28;20106;-75
2023/03/22 18:40:00;;;;;;;10.23;8.27;;;;;;;10.60;100.00;100444.28;10304461;28;20055;-75
2023/03/22 18:44:55;;;;;;;10.45;8.55;;;;;;;10.66;100.00;100440.25;10313392;28;20430;-75
2023/03/22 18:49:52;;;;;;;13.50;8.75;;;;;;;10.69;100.00;100425.13;10300056;28;20071;-75
2023/03/22 18:54:47;;;;;;;12.00;8.25;;;;;;;10.68;100.00;100429.78;10297100;28;20127;-75
2023/03/22 18:59:43;;;;;;;10.98;8.32;;;;;;;10.77;100.00;100438.00;10298935;28;20067;-75
2023/03/22 19:04:38;;;;;;;9.93;7.60;;;;;;;10.81;100.00;100438.13;10309348;28;20056;-75
2023/03/22 19:09:34;;;;;;;9.68;8.00;;;;;;;10.84;100.00;100432.03;10301914;28;20398;-75
2023/03/22 19:14:29;;;;;;;9.00;8.10;;;;;;;10.84;100.00;100437.50;10304670;28;20048;-75
2023/03/22 19:19:25;;;;;;;9.57;7.70;;;;;;;10.84;100.00;100432.03;10293711;28;20036;-76
2023/03/22 19:24:20;;;;;;;10.25;7.72;;;;;;;10.89;100.00;100440.84;10277615;28;20489;-76
2023/03/22 19:29:16;;;;;;;9.70;8.57;;;;;;;10.90;100.00;100430.69;10305867;28;20121;-76
2023/03/22 19:34:12;;;;;;;9.15;7.55;;;;;;;10.87;100.00;100425.88;10287475;28;20052;-75
2023/03/22 19:39:08;;;;;;;9.75;7.10;;;;;;;10.91;100.00;100426.84;10307816;28;20040;-76
2023/03/22 19:44:04;;;;;;;9.82;7.40;;;;;;;10.86;100.00;100427.00;10287995;28;20067;-75
2023/03/22 19:49:01;;;;;;;8.57;7.38;;;;;;;10.90;100.00;100425.22;10298836;28;20037;-75
2023/03/22 19:53:56;;;;;;;11.40;7.57;;;;;;;10.89;100.00;100418.16;10297161;28;20048;-76
2023/03/22 19:58:51;;;;;;;9.50;8.15;;;;;;;10.92;100.00;100412.03;10285941;28;20045;-75
2023/03/22 20:03:47;;;;;;;7.95;7.15;;;;;;;10.90;100.00;100408.81;10294603;28;20040;-75
2023/03/22 20:08:42;;;;;;;8.32;7.53;;;;;;;10.91;100.00;100402.22;10304805;28;20113;-75
2023/03/22 20:13:38;;;;;;;8.70;7.85;;;;;;;10.92;100.00;100401.09;10298525;28;20036;-75
2023/03/22 20:18:33;;;;;;;9.55;7.80;;;;;;;10.92;100.00;100401.09;10303472;28;20033;-74
2023/03/22 20:23:29;;;;;;;9.80;7.50;;;;;;;10.96;100.00;100396.56;10287286;28;20136;-75
2023/03/22 20:28:26;;;;;;;11.82;8.18;;;;;;;10.96;100.00;100399.31;10284551;28;20072;-75
2023/03/22 20:33:23;;;;;;;7.40;6.60;;;;;;;11.01;100.00;100418.28;10300034;28;20040;-75
2023/03/22 20:38:18;;;;;;;8.77;6.85;;;;;;;10.78;100.00;100408.69;10307606;28;20406;-76
2023/03/22 20:43:14;;;;;;;10.20;7.72;;;;;;;10.66;100.00;100396.50;10274462;28;20052;-76
2023/03/22 20:48:09;;;;;;;9.85;7.57;;;;;;;10.61;100.00;100396.69;10303624;28;20040;-76
2023/03/22 20:53:05;;;;;;;9.48;7.03;;;;;;;10.56;100.00;100388.66;10292793;28;20052;-76
2023/03/22 20:58:00;;;;;;;12.82;8.10;;;;;;;10.51;100.00;100377.88;10287994;28;20091;-78
2023/03/22 21:02:56;;;;;;;9.30;8.32;;;;;;;10.57;100.00;100357.44;10308445;28;20049;-76
2023/03/22 21:07:51;;;;;;;15.45;7.60;;;;;;;10.62;100.00;100349.06;10301330;28;20717;-76
2023/03/22 21:12:47;;;;;;;10.73;7.50;;;;;;;10.64;100.00;100346.03;10280074;28;20075;-76
2023/03/22 21:17:42;;;;;;;8.93;7.15;;;;;;;10.71;100.00;100354.50;10308827;28;20068;-76
2023/03/22 21:22:38;;;;;;;9.00;7.75;;;;;;;10.73;100.00;100347.59;10299193;28;20044;-77
2023/03/22 21:27:33;;;;;;;15.73;8.18;;;;;;;10.71;100.00;100341.63;10280669;28;20123;-76
2023/03/22 21:32:29;;;;;;;10.85;7.75;;;;;;;10.73;100.00;100322.97;10300699;28;20048;-71
2023/03/22 21:37:25;;;;;;;11.40;8.48;;;;;;;10.74;100.00;100338.28;10287222;28;20052;-75
2023/03/22 21:42:22;;;;;;;13.10;9.30;;;;;;;10.76;100.00;100331.66;10304593;28;20502;-75
2023/03/22 21:47:21;;;;;;;11.20;8.73;;;;;;;10.68;100.00;100336.03;10299928;28;20079;-75
2023/03/22 21:52:26;;;;;;;12.50;8.57;;;;;;;10.39;100.00;100347.69;10291059;28;20047;-74
2023/03/22 21:57:23;;;;;;;11.85;8.80;;;;;;;10.19;100.00;100341.78;10286705;28;20052;-74
2023/03/22 22:02:21;;;;;;;11.65;8.43;;;;;;;10.20;100.00;100326.97;10274496;28;20128;-74
2023/03/22 22:07:17;;;;;;;10.35;7.85;;;;;;;10.21;100.00;100331.31;10308203;28;20055;-74
2023/03/22 22:12:14;;;;;;;8.32;7.47;;;;;;;10.18;100.00;100318.28;10285186;28;20413;-74
2023/03/22 22:17:11;;;;;;;11.15;8.18;;;;;;;10.20;100.00;100321.50;10303568;28;20040;-74
2023/03/22 22:22:07;;;;;;;9.63;6.93;;;;;;;10.29;100.00;100307.84;10282627;28;20127;-75
2023/03/22 22:27:06;;;;;;;12.82;7.43;;;;;;;10.44;100.00;100309.25;10277574;28;20533;-74
2023/03/22 22:32:11;;;;;;;16.50;7.85;;;;;;;10.47;100.00;100281.28;10286599;28;20059;-74
2023/03/22 22:37:32;;;;;;;10.95;7.75;;;;;;;10.51;100.00;100285.78;10297523;28;20470;-75
2023/03/22 22:43:14;;;;;;;11.43;7.18;;;;;;;10.52;100.00;100290.09;10265270;28;20037;-75